createdAt,value
2018-07-06T00:01:28.246Z,3.80
2018-07-06T00:04:07.967Z,3.30
2018-07-06T00:06:47.612Z,3.47
2018-07-06T00:09:27.195Z,4.10
2018-07-06T00:12:06.882Z,5.63
2018-07-06T00:14:46.451Z,4.43
2018-07-06T00:17:26.090Z,3.50
2018-07-06T00:20:05.824Z,5.27
2018-07-06T00:22:45.521Z,4.37
2018-07-06T00:25:25.117Z,5.73
2018-07-06T00:28:04.875Z,6.37
2018-07-06T00:30:44.632Z,4.67
2018-07-06T00:33:24.472Z,6.23
2018-07-06T00:36:04.068Z,8.53
2018-07-06T00:38:43.799Z,10.30
2018-07-06T00:41:23.584Z,5.93
2018-07-06T00:44:03.262Z,4.70
2018-07-06T00:46:43.008Z,5.80
2018-07-06T00:49:22.679Z,3.97
2018-07-06T00:52:02.364Z,5.93
2018-07-06T00:54:42.072Z,5.30
2018-07-06T00:57:21.825Z,7.00
2018-07-06T01:00:01.292Z,6.20
2018-07-06T01:02:40.799Z,4.97
2018-07-06T01:05:20.369Z,4.73
2018-07-06T01:08:00.016Z,7.07
2018-07-06T01:10:39.759Z,10.23
2018-07-06T01:13:19.441Z,5.90
2018-07-06T01:15:53.216Z,5.73
2018-07-06T01:18:32.818Z,7.87
2018-07-06T01:21:12.542Z,5.40
2018-07-06T01:23:52.137Z,4.53
2018-07-06T01:26:31.764Z,4.57
2018-07-06T01:29:11.275Z,4.87
2018-07-06T01:31:50.804Z,2.80
2018-07-06T01:34:30.346Z,3.97
2018-07-06T01:37:09.888Z,4.43
2018-07-06T01:39:49.682Z,3.40
2018-07-06T01:42:29.200Z,4.93
2018-07-06T01:45:08.743Z,3.03
2018-07-06T01:47:48.265Z,4.17
2018-07-06T01:50:27.748Z,4.27
2018-07-06T01:53:07.484Z,3.93
2018-07-06T01:55:47.024Z,4.90
2018-07-06T01:58:26.390Z,2.63
2018-07-06T02:01:05.972Z,3.10
2018-07-06T02:03:45.632Z,3.33
2018-07-06T02:06:25.031Z,4.30
2018-07-06T02:09:04.712Z,4.20
2018-07-06T02:11:44.370Z,2.87
2018-07-06T02:14:23.862Z,2.50
2018-07-06T02:17:03.442Z,3.80
2018-07-06T02:19:42.899Z,4.03
2018-07-06T02:22:16.571Z,3.43
2018-07-06T02:24:56.277Z,2.80
2018-07-06T02:27:36.098Z,3.10
2018-07-06T02:30:15.540Z,4.43
2018-07-06T02:32:49.113Z,4.57
2018-07-06T02:35:28.664Z,4.47
2018-07-06T02:38:08.203Z,3.87
2018-07-06T02:40:47.894Z,2.43
2018-07-06T02:43:27.539Z,2.53
2018-07-06T02:46:07.135Z,2.70
2018-07-06T02:48:46.902Z,5.13
2018-07-06T02:51:26.518Z,2.53
2018-07-06T02:54:06.180Z,2.27
2018-07-06T02:56:39.720Z,2.57
2018-07-06T02:59:19.407Z,2.23
2018-07-06T03:01:59.094Z,2.23
2018-07-06T03:04:38.508Z,2.80
2018-07-06T03:07:18.115Z,3.43
2018-07-06T03:09:57.754Z,3.17
2018-07-06T03:12:37.544Z,6.53
2018-07-06T03:15:17.240Z,2.97
2018-07-06T03:17:56.810Z,3.80
2018-07-06T03:20:36.356Z,4.13
2018-07-06T03:23:16.015Z,3.43
2018-07-06T03:25:55.508Z,2.70
2018-07-06T03:28:35.469Z,2.60
2018-07-06T03:31:15.211Z,3.07
2018-07-06T03:33:54.980Z,3.60
2018-07-06T03:36:34.767Z,6.00
2018-07-06T03:39:14.385Z,1.93
2018-07-06T03:41:53.806Z,3.30
2018-07-06T03:44:33.348Z,2.53
2018-07-06T03:47:13.024Z,2.07
2018-07-06T03:49:52.645Z,2.60
2018-07-06T03:52:32.206Z,2.43
2018-07-06T03:55:11.862Z,3.90
2018-07-06T03:57:51.451Z,3.37
2018-07-06T04:00:31.066Z,3.00
2018-07-06T04:03:10.627Z,1.30
2018-07-06T04:05:50.352Z,2.17
2018-07-06T04:08:30.065Z,2.17
2018-07-06T04:11:09.784Z,1.77
2018-07-06T04:13:49.267Z,3.13
2018-07-06T04:16:29.024Z,2.40
2018-07-06T04:19:10.988Z,3.73
2018-07-06T04:21:51.486Z,1.83
2018-07-06T04:24:31.440Z,2.30
2018-07-06T04:27:11.999Z,1.97
2018-07-06T04:29:51.436Z,2.50
2018-07-06T04:32:25.157Z,2.33
2018-07-06T04:35:04.839Z,2.80
2018-07-06T04:37:44.460Z,2.83
2018-07-06T04:40:24.379Z,1.57
2018-07-06T04:43:04.368Z,3.53
2018-07-06T04:45:44.239Z,2.20
2018-07-06T04:48:23.843Z,2.10
2018-07-06T04:50:57.453Z,3.33
2018-07-06T04:53:37.089Z,2.47
2018-07-06T04:56:16.656Z,1.77
2018-07-06T04:58:56.231Z,3.40
2018-07-06T05:01:36.319Z,3.60
2018-07-06T05:04:16.286Z,3.67
2018-07-06T05:06:49.750Z,1.70
2018-07-06T05:09:23.348Z,2.13
2018-07-06T05:12:02.975Z,3.40
2018-07-06T05:14:42.763Z,2.07
2018-07-06T05:17:22.380Z,3.80
2018-07-06T05:20:02.171Z,2.73
2018-07-06T05:22:41.817Z,3.47
2018-07-06T05:25:21.455Z,4.37
2018-07-06T05:28:01.309Z,2.33
2018-07-06T05:30:35.110Z,3.23
2018-07-06T05:33:14.631Z,2.47
2018-07-06T05:35:54.169Z,4.63
2018-07-06T05:38:33.826Z,4.20
2018-07-06T05:41:13.248Z,4.53
2018-07-06T05:43:53.082Z,5.30
2018-07-06T05:46:32.894Z,4.20
2018-07-06T05:49:13.126Z,4.20
2018-07-06T05:51:52.890Z,4.50
2018-07-06T05:54:32.486Z,4.47
2018-07-06T05:57:12.076Z,4.87
2018-07-06T05:59:51.715Z,3.97
2018-07-06T06:02:31.467Z,4.33
2018-07-06T06:05:11.107Z,9.83
2018-07-06T06:07:38.314Z,4.63
2018-07-06T06:10:06.411Z,4.07
2018-07-06T06:12:34.542Z,7.53
2018-07-06T06:15:02.608Z,6.73
2018-07-06T06:17:30.752Z,8.37
2018-07-06T06:19:58.854Z,4.83
2018-07-06T06:22:26.991Z,6.50
2018-07-06T06:24:55.162Z,3.10
2018-07-06T06:27:23.259Z,8.23
2018-07-06T06:29:51.641Z,4.80
2018-07-06T06:32:19.974Z,5.60
2018-07-06T06:34:48.234Z,5.37
2018-07-06T06:37:16.321Z,6.53
2018-07-06T06:39:44.495Z,5.73
2018-07-06T06:42:12.645Z,8.40
2018-07-06T06:44:40.801Z,5.70
2018-07-06T06:47:08.900Z,5.23
2018-07-06T06:49:37.046Z,6.33
2018-07-06T06:52:05.154Z,5.57
2018-07-06T06:54:33.259Z,3.90
2018-07-06T06:57:01.373Z,4.10
2018-07-06T06:59:29.491Z,4.77
2018-07-06T07:01:57.603Z,4.90
2018-07-06T07:04:25.750Z,5.87
2018-07-06T07:07:00.403Z,6.93
2018-07-06T07:09:28.731Z,3.77
2018-07-06T07:11:56.851Z,5.83
2018-07-06T07:14:24.975Z,6.13
2018-07-06T07:16:53.046Z,5.57
2018-07-06T07:19:21.123Z,5.73
2018-07-06T07:21:49.226Z,5.57
2018-07-06T07:24:17.338Z,5.87
2018-07-06T07:26:45.411Z,4.73
2018-07-06T07:29:13.502Z,4.83
2018-07-06T07:31:41.563Z,9.43
2018-07-06T07:34:09.670Z,4.80
2018-07-06T07:36:37.761Z,3.83
2018-07-06T07:39:05.876Z,4.57
2018-07-06T07:41:33.989Z,6.33
2018-07-06T07:44:02.116Z,4.87
2018-07-06T07:46:30.204Z,6.13
2018-07-06T07:48:58.358Z,5.67
2018-07-06T07:52:04.554Z,5.20
2018-07-06T07:54:39.079Z,5.50
2018-07-06T07:57:07.132Z,7.33
2018-07-06T07:59:35.011Z,5.77
2018-07-06T08:02:03.879Z,7.80
2018-07-06T08:04:32.473Z,7.10
2018-07-06T08:07:00.584Z,6.60
2018-07-06T08:09:28.838Z,5.77
2018-07-06T08:11:58.393Z,6.50
2018-07-06T08:14:26.830Z,4.53
2018-07-06T08:16:55.011Z,7.20
2018-07-06T08:19:23.669Z,8.03
2018-07-06T08:21:51.794Z,5.30
2018-07-06T08:24:20.577Z,12.10
2018-07-06T08:26:48.980Z,5.17
2018-07-06T08:29:17.125Z,7.10
2018-07-06T08:31:45.605Z,10.90
2018-07-06T08:34:25.073Z,4.67
2018-07-06T08:37:37.347Z,5.20
2018-07-06T08:40:05.409Z,4.97
2018-07-06T08:42:34.610Z,7.03
2018-07-06T08:45:03.282Z,7.03
2018-07-06T08:47:31.345Z,6.53
2018-07-06T08:50:01.070Z,4.73
2018-07-06T08:52:29.226Z,4.40
2018-07-06T08:54:57.322Z,5.03
2018-07-06T08:57:26.480Z,7.40
2018-07-06T08:59:54.912Z,7.40
2018-07-06T09:02:23.518Z,7.33
2018-07-06T09:04:52.573Z,8.87
2018-07-06T09:07:20.726Z,5.43
2018-07-06T09:09:48.992Z,9.37
2018-07-06T09:12:17.071Z,5.07
2018-07-06T09:14:45.135Z,6.60
2018-07-06T09:17:14.405Z,7.63
2018-07-06T09:19:43.067Z,7.53
2018-07-06T09:22:11.495Z,4.03
2018-07-06T09:24:39.829Z,4.50
2018-07-06T09:27:08.053Z,6.17
2018-07-06T09:29:36.138Z,7.37
2018-07-06T09:32:04.235Z,6.97
2018-07-06T09:34:32.267Z,4.83
2018-07-06T09:37:00.375Z,6.47
2018-07-06T09:39:28.479Z,8.93
2018-07-06T09:41:56.551Z,9.17
2018-07-06T09:44:24.648Z,4.93
2018-07-06T09:46:52.730Z,5.90
2018-07-06T09:49:20.820Z,7.87
2018-07-06T09:51:48.892Z,8.00
2018-07-06T09:54:16.987Z,5.73
2018-07-06T09:56:45.108Z,6.60
2018-07-06T09:59:13.384Z,7.27
2018-07-06T10:01:41.567Z,7.13
2018-07-06T10:04:09.738Z,6.90
2018-07-06T10:06:37.850Z,6.40
2018-07-06T10:09:06.826Z,4.57
2018-07-06T10:11:34.945Z,7.10
2018-07-06T10:14:03.458Z,5.27
2018-07-06T10:16:31.534Z,11.77
2018-07-06T10:18:59.697Z,5.43
2018-07-06T10:21:28.093Z,8.47
2018-07-06T10:23:56.353Z,7.37
2018-07-06T10:26:24.527Z,4.60
2018-07-06T10:28:58.155Z,7.57
2018-07-06T10:31:50.204Z,9.43
2018-07-06T10:34:18.685Z,6.77
2018-07-06T10:36:47.240Z,7.60
2018-07-06T10:39:15.341Z,6.37
2018-07-06T10:41:43.415Z,9.47
2018-07-06T10:44:11.494Z,7.63
2018-07-06T10:46:39.591Z,9.10
2018-07-06T10:49:07.711Z,7.60
2018-07-06T10:51:35.798Z,6.23
2018-07-06T10:54:03.884Z,7.67
2018-07-06T10:56:31.979Z,9.30
2018-07-06T10:59:00.095Z,6.37
2018-07-06T11:01:28.240Z,10.07
2018-07-06T11:03:56.331Z,7.57
2018-07-06T11:06:24.449Z,8.73
2018-07-06T11:08:52.630Z,8.93
2018-07-06T11:11:20.680Z,9.10
2018-07-06T11:13:48.784Z,9.97
2018-07-06T11:16:16.870Z,9.47
2018-07-06T11:18:44.969Z,10.53
2018-07-06T11:21:13.073Z,12.23
2018-07-06T11:23:41.182Z,9.27
2018-07-06T11:26:09.300Z,10.23
2018-07-06T11:28:37.396Z,12.83
2018-07-06T11:31:05.664Z,10.43
2018-07-06T11:33:33.806Z,10.13
2018-07-06T11:36:01.884Z,8.33
2018-07-06T11:38:29.982Z,8.27
2018-07-06T11:40:58.076Z,11.20
2018-07-06T11:43:26.217Z,9.40
2018-07-06T11:45:54.316Z,9.67
2018-07-06T11:48:22.546Z,13.10
2018-07-06T11:50:50.615Z,9.63
2018-07-06T11:53:18.680Z,9.43
2018-07-06T11:55:46.799Z,10.73
2018-07-06T11:58:14.983Z,13.30
2018-07-06T12:00:43.106Z,10.17
2018-07-06T12:03:11.341Z,10.20
2018-07-06T12:05:39.666Z,13.07
2018-07-06T12:08:08.216Z,7.80
2018-07-06T12:10:36.308Z,8.20
2018-07-06T12:13:04.401Z,9.60
2018-07-06T12:15:32.474Z,10.47
2018-07-06T12:18:00.690Z,8.47
2018-07-06T12:20:28.771Z,6.83
2018-07-06T12:22:56.839Z,7.03
2018-07-06T12:25:24.909Z,7.37
2018-07-06T12:27:53.283Z,8.40
2018-07-06T12:30:21.347Z,8.30
2018-07-06T12:32:49.435Z,9.67
2018-07-06T12:35:17.311Z,8.13
2018-07-06T12:37:45.406Z,7.93
2018-07-06T12:40:13.535Z,10.23
2018-07-06T12:42:41.640Z,7.27
2018-07-06T12:45:10.763Z,6.83
2018-07-06T12:47:38.831Z,7.90
2018-07-06T12:50:06.948Z,8.90
2018-07-06T12:52:35.515Z,9.90
2018-07-06T12:55:03.614Z,11.60
2018-07-06T12:57:31.894Z,6.47
2018-07-06T12:59:59.991Z,9.93
2018-07-06T13:02:28.065Z,13.07
2018-07-06T13:04:56.231Z,6.83
2018-07-06T13:07:24.345Z,6.60
2018-07-06T13:09:52.423Z,5.17
2018-07-06T13:12:20.569Z,6.57
2018-07-06T13:14:48.641Z,5.73
2018-07-06T13:17:16.764Z,8.20
2018-07-06T13:19:44.932Z,7.33
2018-07-06T13:22:13.469Z,10.13
2018-07-06T13:24:41.566Z,4.70
2018-07-06T13:27:09.657Z,4.30
2018-07-06T13:29:37.767Z,21.80
2018-07-06T13:32:06.007Z,5.63
2018-07-06T13:34:34.087Z,5.13
2018-07-06T13:37:02.189Z,6.10
2018-07-06T13:39:30.281Z,10.07
2018-07-06T13:41:58.391Z,6.40
2018-07-06T13:44:26.501Z,4.10
2018-07-06T13:46:54.383Z,3.30
2018-07-06T13:49:22.346Z,7.23
2018-07-06T13:51:50.476Z,3.77
2018-07-06T13:54:18.554Z,4.40
2018-07-06T13:56:46.818Z,3.57
2018-07-06T13:59:14.975Z,4.03
2018-07-06T14:01:43.015Z,3.07
2018-07-06T14:04:11.106Z,2.50
2018-07-06T14:06:39.196Z,3.10
2018-07-06T14:09:07.314Z,3.47
2018-07-06T14:11:35.430Z,2.63
2018-07-06T14:14:03.518Z,5.57
2018-07-06T14:16:31.610Z,3.10
2018-07-06T14:18:59.755Z,4.13
2018-07-06T14:21:27.830Z,5.73
2018-07-06T14:23:55.917Z,3.77
2018-07-06T14:26:24.011Z,3.23
2018-07-06T14:28:52.095Z,7.07
2018-07-06T14:31:21.201Z,7.70
2018-07-06T14:33:51.057Z,4.60
2018-07-06T14:36:22.482Z,3.50
2018-07-06T14:38:52.103Z,5.00
2018-07-06T14:41:20.351Z,4.77
2018-07-06T14:43:48.440Z,2.80
2018-07-06T14:46:16.499Z,2.77
2018-07-06T14:48:46.673Z,3.60
2018-07-06T14:51:16.111Z,7.50
2018-07-06T14:53:51.802Z,2.20
2018-07-06T14:56:22.981Z,2.83
2018-07-06T14:58:51.363Z,1.80
2018-07-06T15:01:19.455Z,4.33
2018-07-06T15:03:47.555Z,2.37
2018-07-06T15:06:15.655Z,3.27
2018-07-06T15:08:43.949Z,3.70
2018-07-06T15:11:12.158Z,2.63
2018-07-06T15:13:40.279Z,2.00
2018-07-06T15:16:08.943Z,2.07
2018-07-06T15:18:37.032Z,4.40
2018-07-06T15:21:05.160Z,2.50
2018-07-06T15:23:33.329Z,8.97
2018-07-06T15:26:01.599Z,5.87
2018-07-06T15:28:30.045Z,4.47
2018-07-06T15:33:31.233Z,3.20
2018-07-06T15:35:59.357Z,4.13
2018-07-06T15:38:27.464Z,2.83
2018-07-06T15:40:55.857Z,5.23
2018-07-06T15:43:23.968Z,2.70
2018-07-06T15:45:52.062Z,5.13
2018-07-06T15:48:20.329Z,3.07
2018-07-06T15:50:48.440Z,3.07
2018-07-06T15:53:16.517Z,2.90
2018-07-06T15:55:44.600Z,3.07
2018-07-06T15:58:12.766Z,3.40
2018-07-06T16:00:40.873Z,3.40
2018-07-06T16:03:08.991Z,3.93
2018-07-06T16:05:37.156Z,4.43
2018-07-06T16:08:05.372Z,2.13
2018-07-06T16:10:33.483Z,2.70
2018-07-06T16:13:01.720Z,4.70
2018-07-06T16:15:29.859Z,3.53
2018-07-06T16:17:57.978Z,3.70
2018-07-06T16:20:26.051Z,2.63
2018-07-06T16:22:53.951Z,4.63
2018-07-06T16:25:22.024Z,2.50
2018-07-06T16:27:50.094Z,3.93
2018-07-06T16:30:18.221Z,2.57
2018-07-06T16:32:46.400Z,2.43
2018-07-06T16:35:14.494Z,3.17
2018-07-06T16:37:42.551Z,4.63
2018-07-06T16:40:10.693Z,3.63
2018-07-06T16:42:38.792Z,2.87
2018-07-06T16:45:06.895Z,2.97
2018-07-06T16:47:34.984Z,3.00
2018-07-06T16:50:03.098Z,3.90
2018-07-06T16:52:31.163Z,5.10
2018-07-06T16:54:59.249Z,4.17
2018-07-06T16:57:27.317Z,3.80
2018-07-06T16:59:55.430Z,6.57
2018-07-06T17:02:23.516Z,3.57
2018-07-06T17:04:51.583Z,3.57
2018-07-06T17:07:19.708Z,3.30
2018-07-06T17:09:47.795Z,3.90
2018-07-06T17:12:15.920Z,9.93
2018-07-06T17:14:44.019Z,8.80
2018-07-06T17:17:12.088Z,6.30
2018-07-06T17:19:40.191Z,5.23
2018-07-06T17:22:08.285Z,10.43
2018-07-06T17:24:36.270Z,4.63
2018-07-06T17:27:04.332Z,3.30
2018-07-06T17:29:32.561Z,4.00
2018-07-06T17:32:00.765Z,3.13
2018-07-06T17:36:49.151Z,4.40
2018-07-06T17:39:17.288Z,5.70
2018-07-06T17:41:45.363Z,4.40
2018-07-06T17:44:13.595Z,6.87
2018-07-06T17:46:41.723Z,4.37
2018-07-06T17:49:09.795Z,7.40
2018-07-06T17:51:37.905Z,5.47
2018-07-06T17:54:06.059Z,6.93
2018-07-06T17:56:34.152Z,5.97
2018-07-06T17:59:02.363Z,4.50
2018-07-06T18:01:30.449Z,6.43
2018-07-06T18:03:58.592Z,5.30
2018-07-06T18:06:26.728Z,5.13
2018-07-06T18:08:54.991Z,6.20
2018-07-06T18:11:23.200Z,7.10
2018-07-06T18:13:51.285Z,11.40
2018-07-06T18:16:19.386Z,6.27
2018-07-06T18:18:47.546Z,7.00
2018-07-06T18:21:16.085Z,7.33
2018-07-06T18:23:44.183Z,4.07
2018-07-06T18:26:12.280Z,7.30
2018-07-06T18:28:40.351Z,9.77
2018-07-06T18:31:08.463Z,5.50
2018-07-06T18:33:36.718Z,8.57
2018-07-06T18:36:04.851Z,8.43
2018-07-06T18:38:32.974Z,8.23
2018-07-06T18:41:01.093Z,4.13
2018-07-06T18:43:29.210Z,7.57
2018-07-06T18:45:57.294Z,6.23
2018-07-06T18:48:25.380Z,6.40
2018-07-06T18:50:53.484Z,6.70
2018-07-06T18:53:21.586Z,4.30
2018-07-06T18:55:49.684Z,6.40
2018-07-06T18:58:17.770Z,8.53
2018-07-06T19:00:45.901Z,7.10
2018-07-06T19:03:14.013Z,5.70
2018-07-06T19:05:42.171Z,5.37
2018-07-06T19:08:10.307Z,5.23
2018-07-06T19:10:38.274Z,8.27
2018-07-06T19:13:06.385Z,9.80
2018-07-06T19:15:34.486Z,12.27
2018-07-06T19:18:02.602Z,7.90
2018-07-06T19:20:30.675Z,5.00
2018-07-06T19:22:58.826Z,9.10
2018-07-06T19:25:26.924Z,9.33
2018-07-06T19:27:55.078Z,8.60
2018-07-06T19:30:23.219Z,10.23
2018-07-06T19:32:51.351Z,9.13
2018-07-06T19:35:19.450Z,7.60
2018-07-06T19:37:47.538Z,9.90
2018-07-06T19:40:15.647Z,9.13
2018-07-06T19:42:43.756Z,10.27
2018-07-06T19:45:11.854Z,8.87
2018-07-06T19:47:39.957Z,7.10
2018-07-06T19:50:08.067Z,9.13
2018-07-06T19:52:36.147Z,7.77
2018-07-06T19:55:04.185Z,9.53
2018-07-06T19:57:32.400Z,9.67
2018-07-06T20:00:00.586Z,12.13
2018-07-06T20:02:28.732Z,8.33
2018-07-06T20:04:56.816Z,8.17
2018-07-06T20:07:24.944Z,10.47
2018-07-06T20:09:53.107Z,10.27
2018-07-06T20:12:21.232Z,7.27
2018-07-06T20:14:49.307Z,8.23
2018-07-06T20:17:17.441Z,6.27
2018-07-06T20:19:45.524Z,8.13
2018-07-06T20:22:13.594Z,6.23
2018-07-06T20:24:41.724Z,13.07
2018-07-06T20:27:09.814Z,12.80
2018-07-06T20:29:37.972Z,6.80
2018-07-06T20:32:06.182Z,13.70
2018-07-06T20:34:34.272Z,6.40
2018-07-06T20:37:02.367Z,10.23
2018-07-06T20:39:30.482Z,7.63
2018-07-06T20:41:58.550Z,8.83
2018-07-06T20:44:26.706Z,8.07
2018-07-06T20:46:54.787Z,8.90
2018-07-06T20:49:22.883Z,10.40
2018-07-06T20:51:50.938Z,6.63
2018-07-06T20:54:19.037Z,13.70
2018-07-06T20:56:47.104Z,7.63
2018-07-06T20:59:15.241Z,13.27
2018-07-06T21:01:43.367Z,10.47
2018-07-06T21:04:11.512Z,8.90
2018-07-06T21:06:39.599Z,8.70
2018-07-06T21:09:07.686Z,10.57
2018-07-06T21:11:35.789Z,8.03
2018-07-06T21:14:03.871Z,8.37
2018-07-06T21:16:31.743Z,9.87
2018-07-06T21:18:59.802Z,8.80
2018-07-06T21:21:27.908Z,8.90
2018-07-06T21:23:55.971Z,9.83
2018-07-06T21:26:24.094Z,10.33
2018-07-06T21:28:52.427Z,9.80
2018-07-06T21:31:20.547Z,5.90
2018-07-06T21:33:48.712Z,7.30
2018-07-06T21:36:16.843Z,8.17
2018-07-06T21:38:44.928Z,6.77
2018-07-06T21:41:13.000Z,7.23
2018-07-06T21:43:40.867Z,11.80
2018-07-06T21:46:08.943Z,8.83
2018-07-06T21:48:37.071Z,10.87
2018-07-06T21:51:05.231Z,7.63
2018-07-06T21:53:33.256Z,6.27
2018-07-06T21:56:01.397Z,7.50
2018-07-06T21:58:29.453Z,8.50
2018-07-06T22:00:57.544Z,8.43
2018-07-06T22:03:25.648Z,6.53
2018-07-06T22:05:53.730Z,10.10
2018-07-06T22:08:21.780Z,7.43
2018-07-06T22:10:49.867Z,9.73
2018-07-06T22:13:17.938Z,7.90
2018-07-06T22:15:46.856Z,10.33
2018-07-06T22:18:17.404Z,6.67
2018-07-06T22:20:46.444Z,9.20
2018-07-06T22:23:15.091Z,9.77
2018-07-06T22:25:43.310Z,7.37
2018-07-06T22:28:11.501Z,5.20
2018-07-06T22:30:39.378Z,11.67
2018-07-06T22:33:07.504Z,5.70
2018-07-06T22:35:35.572Z,7.57
2018-07-06T22:38:03.613Z,8.07
2018-07-06T22:40:38.586Z,6.87
2018-07-06T22:43:06.698Z,4.83
2018-07-06T22:45:34.762Z,8.77
2018-07-06T22:48:02.815Z,6.57
2018-07-06T22:50:30.905Z,6.90
2018-07-06T22:52:59.005Z,6.07
2018-07-06T22:55:27.073Z,7.80
2018-07-06T22:57:55.187Z,10.20
2018-07-06T23:00:23.259Z,10.83
2018-07-06T23:02:51.339Z,9.73
2018-07-06T23:05:20.398Z,7.80
2018-07-06T23:07:48.582Z,8.57
2018-07-06T23:10:16.669Z,5.60
2018-07-06T23:12:44.736Z,9.33
2018-07-06T23:15:12.831Z,7.37
2018-07-06T23:17:40.912Z,6.97
2018-07-06T23:20:08.982Z,9.13
2018-07-06T23:23:05.673Z,13.90
2018-07-06T23:25:34.772Z,9.23
2018-07-06T23:28:02.835Z,10.43
2018-07-06T23:30:30.895Z,6.30
2018-07-06T23:33:00.135Z,8.83
2018-07-06T23:35:28.213Z,8.00
2018-07-06T23:37:56.466Z,8.00
2018-07-06T23:40:24.540Z,7.97
2018-07-06T23:42:52.638Z,6.43
2018-07-06T23:45:21.000Z,9.07
2018-07-06T23:47:49.077Z,11.23
2018-07-06T23:50:17.647Z,7.60
2018-07-06T23:52:45.772Z,6.30
2018-07-06T23:55:14.227Z,8.73
2018-07-06T23:57:42.384Z,11.07
